Time;durP1;ratioP1;P1;durP2;ratioP2;P2;SDS_P1;SDS_P2;PMS_P1;PMS_P2;Temp;Humidity;BMP_temperature;BMP_pressure;BME280_temperature;BME280_humidity;BME280_pressure;Samples;Min_cycle;Max_cycle;Signal;HPM_P1;HPM_P2
2021/12/15 00:01:09;;;;;;;50.92;23.83;;;11.90;99.90;;;;;;5101444;28;20036;-73
2021/12/15 00:03:35;;;;;;;50.50;22.50;;;11.60;99.90;;;;;;5105138;28;20113;-73
2021/12/15 00:06:03;;;;;;;44.50;22.70;;;12.20;99.90;;;;;;5107113;28;20034;-73
2021/12/15 00:08:29;;;;;;;56.00;24.17;;;11.70;99.90;;;;;;5110123;28;20040;-73
2021/12/15 00:10:55;;;;;;;47.10;21.67;;;11.20;99.90;;;;;;5108462;28;20035;-73
2021/12/15 00:13:23;;;;;;;42.55;22.00;;;10.40;99.90;;;;;;5088140;28;20180;-73
2021/12/15 00:15:49;;;;;;;54.67;23.35;;;10.30;99.90;;;;;;5109848;28;20431;-70
2021/12/15 00:18:15;;;;;;;51.45;23.30;;;10.80;99.90;;;;;;5111496;28;20101;-73
2021/12/15 00:20:43;;;;;;;48.55;23.40;;;10.40;99.90;;;;;;5090759;28;20075;-74
2021/12/15 00:23:09;;;;;;;50.75;23.67;;;10.80;99.90;;;;;;5105259;28;20616;-74
2021/12/15 00:25:38;;;;;;;55.45;23.42;;;11.60;99.90;;;;;;5086621;28;20634;-72
2021/12/15 00:28:04;;;;;;;48.05;23.40;;;11.70;99.90;;;;;;5103382;28;20503;-73
2021/12/15 00:30:30;;;;;;;48.60;23.00;;;11.90;99.90;;;;;;5106768;28;20040;-73
2021/12/15 00:32:56;;;;;;;46.83;24.27;;;10.40;99.90;;;;;;5104664;28;20043;-73
2021/12/15 00:35:22;;;;;;;56.50;24.70;;;10.90;99.90;;;;;;5105797;28;20088;-74
2021/12/15 00:37:49;;;;;;;49.45;23.00;;;11.30;99.90;;;;;;5089972;28;20055;-73
2021/12/15 00:40:19;;;;;;;45.60;22.55;;;10.80;99.90;;;;;;5088074;28;20039;-74
2021/12/15 00:42:46;;;;;;;51.78;23.15;;;11.90;99.90;;;;;;5108437;28;20379;-73
2021/12/15 00:45:12;;;;;;;42.72;22.33;;;10.90;99.90;;;;;;5106512;28;20048;-73
2021/12/15 00:47:38;;;;;;;47.60;22.60;;;10.70;99.90;;;;;;5106182;28;20050;-74
2021/12/15 00:50:07;;;;;;;41.20;20.98;;;11.50;99.90;;;;;;5107305;28;20407;-73
2021/12/15 00:52:34;;;;;;;44.25;20.80;;;10.60;99.90;;;;;;5107548;28;20394;-73
2021/12/15 00:55:01;;;;;;;43.53;21.83;;;10.30;99.90;;;;;;5108131;28;20044;-73
2021/12/15 00:57:27;;;;;;;42.75;21.55;;;10.70;99.90;;;;;;5064379;28;20387;-74
2021/12/15 00:59:52;;;;;;;50.03;22.35;;;10.40;99.90;;;;;;5084538;28;20043;-73
2021/12/15 01:02:18;;;;;;;47.95;23.75;;;11.20;99.90;;;;;;5101888;28;20161;-74
2021/12/15 01:04:44;;;;;;;44.53;22.00;;;10.60;99.90;;;;;;5098292;28;20135;-73
2021/12/15 01:07:12;;;;;;;44.40;21.77;;;11.60;99.90;;;;;;5099609;28;20372;-73
2021/12/15 01:09:50;;;;;;;44.22;19.92;;;11.50;99.90;;;;;;5108962;28;20047;-73
2021/12/15 01:14:32;;;;;;;43.55;20.95;;;11.80;99.90;;;;;;5106486;28;20130;-73
2021/12/15 01:20:55;;;;;;;43.33;21.42;;;10.40;99.90;;;;;;5105722;28;20183;-73
2021/12/15 01:23:25;;;;;;;38.17;20.50;;;11.80;99.90;;;;;;5107889;28;20067;-73
2021/12/15 01:26:11;;;;;;;51.03;23.63;;;10.30;99.90;;;;;;5103430;28;20192;-73
2021/12/15 01:28:38;;;;;;;42.05;21.85;;;11.80;99.90;;;;;;5100308;28;20118;-73
2021/12/15 01:31:05;;;;;;;49.90;24.30;;;10.30;99.90;;;;;;5102169;28;20036;-73
2021/12/15 01:33:32;;;;;;;44.97;22.75;;;11.50;99.90;;;;;;5104274;28;20911;-73
2021/12/15 01:35:58;;;;;;;43.15;20.58;;;10.90;99.90;;;;;;5101824;28;20059;-73
2021/12/15 01:38:29;;;;;;;42.15;22.30;;;11.90;99.90;;;;;;5122347;27;20084;-73
2021/12/15 01:40:56;;;;;;;48.75;21.20;;;10.80;99.90;;;;;;5096826;28;20042;-74
2021/12/15 01:49:10;;;;;;;39.92;21.98;;;11.10;99.90;;;;;;5110108;28;20078;-72
2021/12/15 01:51:36;;;;;;;44.55;22.05;;;11.60;99.90;;;;;;5104399;28;20051;-72
2021/12/15 01:54:03;;;;;;;47.15;23.23;;;10.80;99.90;;;;;;5108887;28;20043;-72
2021/12/15 01:56:30;;;;;;;45.80;23.73;;;11.50;99.90;;;;;;5104227;28;20062;-73
2021/12/15 01:58:57;;;;;;;44.47;20.83;;;10.40;99.90;;;;;;5110340;28;20031;-72
2021/12/15 02:01:24;;;;;;;44.03;23.42;;;11.40;99.90;;;;;;5102019;28;20441;-74
2021/12/15 02:03:50;;;;;;;52.95;23.67;;;10.80;99.90;;;;;;5097215;28;20047;-73
2021/12/15 02:06:16;;;;;;;47.05;24.02;;;10.80;99.90;;;;;;5102690;28;20071;-73
2021/12/15 02:08:42;;;;;;;46.67;23.02;;;11.20;99.90;;;;;;5110137;28;20169;-72
2021/12/15 02:11:09;;;;;;;45.55;23.15;;;10.80;99.90;;;;;;5105321;28;20051;-73
2021/12/15 02:13:35;;;;;;;44.20;22.60;;;10.50;99.90;;;;;;5101528;28;20039;-74
2021/12/15 02:16:05;;;;;;;44.25;22.75;;;10.70;99.90;;;;;;5105051;28;20038;-73
2021/12/15 02:18:36;;;;;;;45.45;21.05;;;11.70;99.90;;;;;;5090728;28;20036;-73
2021/12/15 02:21:10;;;;;;;42.13;22.42;;;10.80;99.90;;;;;;5107917;28;20036;-75
2021/12/15 02:23:42;;;;;;;45.58;22.13;;;10.40;99.90;;;;;;5104386;28;20170;-73
2021/12/15 02:26:16;;;;;;;45.90;23.02;;;10.70;99.90;;;;;;5105237;28;20046;-72
2021/12/15 02:28:47;;;;;;;43.65;22.45;;;10.80;99.90;;;;;;5110440;28;20118;-73
2021/12/15 02:31:37;;;;;;;40.28;20.10;;;10.40;99.90;;;;;;5102469;28;21941;-73
2021/12/15 02:34:32;;;;;;;47.25;22.55;;;11.60;99.90;;;;;;5094210;28;20047;-73
2021/12/15 02:39:28;;;;;;;47.08;23.02;;;11.00;99.90;;;;;;5099419;28;20044;-73
2021/12/15 02:41:54;;;;;;;49.35;24.42;;;11.80;99.90;;;;;;5100484;28;20050;-73
2021/12/15 02:44:21;;;;;;;44.78;22.75;;;11.10;99.90;;;;;;5097628;28;20056;-73
2021/12/15 02:46:49;;;;;;;51.75;25.35;;;10.60;99.90;;;;;;5101091;28;21559;-73
2021/12/15 02:49:18;;;;;;;45.78;23.48;;;10.40;99.90;;;;;;5092924;28;20058;-73
2021/12/15 02:51:47;;;;;;;47.70;24.52;;;10.80;99.90;;;;;;5096358;28;20071;-72
2021/12/15 02:54:16;;;;;;;49.05;23.75;;;11.70;99.90;;;;;;5106633;28;20049;-73
2021/12/15 02:56:43;;;;;;;48.80;24.83;;;11.70;99.90;;;;;;5102078;28;20380;-73
2021/12/15 02:59:12;;;;;;;46.13;24.30;;;11.20;99.90;;;;;;5103977;28;20057;-74
2021/12/15 03:02:10;;;;;;;46.53;25.35;;;11.20;99.90;;;;;;5107897;28;20074;-72
2021/12/15 03:04:48;;;;;;;53.28;25.35;;;10.70;99.90;;;;;;5103599;28;20050;-73
2021/12/15 03:15:29;;;;;;;50.23;24.63;;;10.70;99.90;;;;;;5098510;28;20059;-73
2021/12/15 03:18:05;;;;;;;47.08;24.27;;;11.60;99.90;;;;;;5098987;28;20040;-73
2021/12/15 03:20:36;;;;;;;48.17;24.35;;;11.30;99.90;;;;;;5101323;28;20047;-73
2021/12/15 03:23:04;;;;;;;49.80;25.08;;;11.20;99.90;;;;;;5107704;28;20375;-73
2021/12/15 03:25:31;;;;;;;45.25;24.20;;;11.30;99.90;;;;;;5106983;28;20491;-73
2021/12/15 03:36:23;;;;;;;46.22;23.25;;;10.70;99.90;;;;;;5109595;28;20058;-74
2021/12/15 03:38:49;;;;;;;44.97;23.52;;;10.60;99.90;;;;;;5099981;28;20504;-73
2021/12/15 03:41:15;;;;;;;46.80;23.20;;;10.40;99.90;;;;;;5110629;28;20035;-73
2021/12/15 03:43:41;;;;;;;49.40;26.35;;;10.80;99.90;;;;;;5109290;28;20051;-74
2021/12/15 03:46:12;;;;;;;47.55;25.25;;;11.00;99.90;;;;;;5077953;28;20043;-74
2021/12/15 03:48:42;;;;;;;51.45;26.10;;;11.00;99.90;;;;;;5109644;28;20043;-74
2021/12/15 03:51:08;;;;;;;46.60;25.58;;;11.30;99.90;;;;;;5105886;28;20164;-73
2021/12/15 03:53:34;;;;;;;43.47;24.58;;;10.70;99.90;;;;;;5105288;28;20395;-73
2021/12/15 03:56:01;;;;;;;44.83;23.88;;;11.50;99.90;;;;;;5089931;28;20062;-74
2021/12/15 03:58:27;;;;;;;47.05;24.52;;;11.20;99.90;;;;;;5123016;27;20044;-73
2021/12/15 04:00:57;;;;;;;46.78;25.75;;;11.40;99.90;;;;;;5105763;28;20071;-74
2021/12/15 04:03:34;;;;;;;47.97;24.98;;;11.30;99.90;;;;;;5112842;28;20058;-73
2021/12/15 04:06:02;;;;;;;46.20;24.33;;;10.80;99.90;;;;;;5102564;28;20126;-73
2021/12/15 04:08:29;;;;;;;43.72;24.73;;;11.40;99.90;;;;;;5105210;28;20081;-72
2021/12/15 04:10:57;;;;;;;44.53;23.83;;;11.20;99.90;;;;;;5109323;28;20043;-73
2021/12/15 04:13:23;;;;;;;42.65;25.25;;;11.40;99.90;;;;;;5107050;28;20151;-72
2021/12/15 04:16:03;;;;;;;44.70;24.33;;;11.00;99.90;;;;;;5102000;28;20039;-72
2021/12/15 04:18:29;;;;;;;43.45;24.63;;;11.20;99.90;;;;;;5101171;28;20106;-72
2021/12/15 04:20:55;;;;;;;45.13;25.27;;;10.70;99.90;;;;;;5101219;28;20460;-72
2021/12/15 04:23:21;;;;;;;50.63;25.05;;;10.60;99.90;;;;;;5107027;28;20031;-73
2021/12/15 04:25:50;;;;;;;51.20;26.58;;;11.40;99.90;;;;;;5107743;28;20043;-72
2021/12/15 04:28:20;;;;;;;49.65;25.58;;;11.10;99.90;;;;;;5101682;28;20430;-72
2021/12/15 04:30:50;;;;;;;46.58;25.08;;;11.30;99.90;;;;;;5108477;28;20046;-72
2021/12/15 04:33:25;;;;;;;48.08;25.00;;;11.40;99.90;;;;;;5104474;28;20059;-72
2021/12/15 04:35:54;;;;;;;47.83;26.55;;;11.40;99.90;;;;;;5104894;28;20120;-73
2021/12/15 04:38:22;;;;;;;46.25;23.90;;;10.70;99.90;;;;;;5098862;28;20050;-72
2021/12/15 04:40:48;;;;;;;47.33;24.98;;;11.40;99.90;;;;;;5108125;28;20051;-73
2021/12/15 04:43:14;;;;;;;52.75;24.20;;;10.80;99.90;;;;;;5106456;28;20032;-72
2021/12/15 04:45:40;;;;;;;51.47;25.00;;;10.50;99.90;;;;;;5108667;28;20047;-72
2021/12/15 04:48:07;;;;;;;41.97;22.65;;;10.60;99.90;;;;;;5105945;28;20161;-72
2021/12/15 04:50:33;;;;;;;47.75;25.63;;;11.30;99.90;;;;;;5101153;28;20560;-72
2021/12/15 04:53:02;;;;;;;46.28;25.88;;;10.80;99.90;;;;;;5102386;28;20047;-73
2021/12/15 04:55:29;;;;;;;47.45;24.10;;;10.90;99.90;;;;;;5103487;28;20054;-73
2021/12/15 04:57:58;;;;;;;46.80;23.40;;;11.20;99.90;;;;;;5103925;28;20043;-73
2021/12/15 05:00:29;;;;;;;58.95;26.65;;;11.30;99.90;;;;;;5101418;28;20035;-73
2021/12/15 05:02:56;;;;;;;50.42;24.48;;;10.60;99.90;;;;;;5104124;28;20083;-73
2021/12/15 05:05:28;;;;;;;50.50;25.05;;;11.30;99.90;;;;;;5097706;28;20052;-73
2021/12/15 05:07:54;;;;;;;54.38;25.38;;;11.20;99.90;;;;;;5102016;28;20096;-73
2021/12/15 05:10:21;;;;;;;53.22;25.02;;;10.50;99.90;;;;;;5103466;28;20547;-72
2021/12/15 05:12:47;;;;;;;46.75;25.75;;;11.10;99.90;;;;;;5101735;28;20040;-73
2021/12/15 05:15:14;;;;;;;48.85;24.15;;;11.00;99.90;;;;;;5100816;28;20036;-73
2021/12/15 05:17:40;;;;;;;55.20;26.75;;;11.20;99.90;;;;;;5103289;28;20052;-73
2021/12/15 05:20:08;;;;;;;48.88;25.15;;;10.50;99.90;;;;;;5100732;28;20126;-73
2021/12/15 05:22:34;;;;;;;42.65;24.05;;;11.10;99.90;;;;;;5104884;28;20074;-73
2021/12/15 05:25:01;;;;;;;48.47;24.48;;;11.10;99.90;;;;;;5099112;28;20043;-73
2021/12/15 05:27:27;;;;;;;45.50;23.10;;;10.80;99.90;;;;;;5098278;28;20126;-73
2021/12/15 05:29:52;;;;;;;49.60;24.25;;;10.50;99.90;;;;;;5102869;28;20881;-73
2021/12/15 05:32:21;;;;;;;50.10;25.42;;;10.70;99.90;;;;;;5099687;28;20031;-74
2021/12/15 05:34:49;;;;;;;54.50;25.23;;;10.50;99.90;;;;;;5109672;28;20043;-73
2021/12/15 05:37:16;;;;;;;45.33;22.27;;;10.70;99.90;;;;;;5091472;28;20044;-73
2021/12/15 05:39:44;;;;;;;49.97;24.67;;;11.20;99.90;;;;;;5105412;28;20123;-73
2021/12/15 05:42:10;;;;;;;46.10;23.45;;;10.50;99.90;;;;;;5082001;28;20039;-73
2021/12/15 05:44:36;;;;;;;46.78;25.33;;;11.10;99.90;;;;;;5107580;28;20036;-74
2021/12/15 05:47:04;;;;;;;52.13;25.80;;;10.80;99.90;;;;;;5110559;27;20075;-73
2021/12/15 05:49:30;;;;;;;53.97;26.35;;;11.10;99.90;;;;;;5089114;28;20043;-73
2021/12/15 05:51:57;;;;;;;54.22;26.88;;;11.00;99.90;;;;;;5105964;28;20035;-73
2021/12/15 05:54:24;;;;;;;57.55;27.05;;;10.80;99.90;;;;;;5100112;28;20039;-73
2021/12/15 05:56:49;;;;;;;58.22;26.00;;;10.50;99.90;;;;;;5084554;28;20047;-74
2021/12/15 05:59:16;;;;;;;55.47;25.60;;;10.50;99.90;;;;;;5083177;28;20036;-73
2021/12/15 06:01:42;;;;;;;53.65;26.10;;;10.80;99.90;;;;;;5105035;28;20218;-73
2021/12/15 06:04:08;;;;;;;51.20;25.48;;;10.90;99.90;;;;;;5089155;28;20469;-73
2021/12/15 06:06:34;;;;;;;54.80;26.75;;;10.70;99.90;;;;;;5107791;28;20047;-73
2021/12/15 06:09:01;;;;;;;46.95;24.52;;;11.10;99.90;;;;;;5105357;28;20083;-73
2021/12/15 06:11:27;;;;;;;57.63;25.85;;;10.80;99.90;;;;;;5121419;27;20078;-73
2021/12/15 06:13:53;;;;;;;47.53;23.45;;;10.60;99.90;;;;;;5103716;28;20526;-74
2021/12/15 06:16:21;;;;;;;48.92;24.58;;;11.10;99.90;;;;;;5089054;28;20023;-74
2021/12/15 06:18:50;;;;;;;46.30;25.40;;;11.10;99.90;;;;;;5101393;28;20027;-72
2021/12/15 06:21:18;;;;;;;49.47;24.45;;;11.10;99.90;;;;;;5100121;28;20040;-72
2021/12/15 06:23:44;;;;;;;47.92;25.10;;;11.20;99.90;;;;;;5089872;28;20487;-73
2021/12/15 06:26:11;;;;;;;45.35;23.88;;;10.70;99.90;;;;;;5102858;28;20032;-74
2021/12/15 06:28:37;;;;;;;54.13;25.38;;;11.00;99.90;;;;;;5087900;28;20080;-75
2021/12/15 06:31:09;;;;;;;48.25;23.77;;;10.70;99.90;;;;;;5108058;28;20039;-74
2021/12/15 06:33:38;;;;;;;51.28;25.75;;;10.50;99.90;;;;;;5087187;28;20035;-74
2021/12/15 06:36:05;;;;;;;46.10;23.77;;;10.60;99.90;;;;;;5087168;28;20040;-73
2021/12/15 06:38:39;;;;;;;51.50;24.92;;;10.70;99.90;;;;;;5101214;28;20538;-75
2021/12/15 06:41:08;;;;;;;50.13;24.50;;;10.70;99.90;;;;;;5101542;28;20163;-73
2021/12/15 06:43:35;;;;;;;53.72;24.85;;;10.80;99.90;;;;;;5107660;28;20036;-73
2021/12/15 06:57:34;;;;;;;54.65;26.48;;;10.60;99.90;;;;;;5030787;28;20053;-73
2021/12/15 07:00:06;;;;;;;53.25;27.02;;;10.60;99.90;;;;;;5056949;28;20048;-72
2021/12/15 07:02:32;;;;;;;48.25;25.00;;;10.80;99.90;;;;;;5076205;28;20052;-73
2021/12/15 07:04:58;;;;;;;42.17;23.05;;;10.50;99.90;;;;;;5113675;28;20347;-74
2021/12/15 07:07:23;;;;;;;47.55;22.98;;;11.10;99.90;;;;;;5108456;28;20039;-74
2021/12/15 07:09:49;;;;;;;47.60;25.05;;;11.00;99.90;;;;;;5112817;28;20051;-73
2021/12/15 07:12:15;;;;;;;47.05;23.02;;;10.60;99.90;;;;;;5087108;28;20043;-75
2021/12/15 07:14:41;;;;;;;45.38;22.48;;;11.00;99.90;;;;;;5110327;28;20495;-73
2021/12/15 07:17:14;;;;;;;49.97;24.30;;;11.10;99.90;;;;;;5103789;28;20050;-74
2021/12/15 07:20:05;;;;;;;51.70;24.33;;;10.70;99.90;;;;;;5113771;28;20044;-73
2021/12/15 07:22:43;;;;;;;49.72;24.33;;;10.80;99.90;;;;;;5105659;28;22029;-74
2021/12/15 07:25:13;;;;;;;45.67;22.77;;;10.70;99.90;;;;;;5104037;28;20031;-73
2021/12/15 07:27:39;;;;;;;44.88;23.38;;;11.10;99.90;;;;;;5104509;28;20062;-73
2021/12/15 07:30:06;;;;;;;45.60;23.05;;;10.80;99.90;;;;;;5090859;28;20043;-72
2021/12/15 07:32:31;;;;;;;44.13;21.58;;;11.10;99.90;;;;;;5090110;28;20079;-72
2021/12/15 07:34:57;;;;;;;38.83;20.40;;;11.00;99.90;;;;;;5086005;28;20123;-72
2021/12/15 07:37:23;;;;;;;38.80;21.70;;;10.60;99.90;;;;;;5107753;28;20069;-72
2021/12/15 07:39:58;;;;;;;42.08;21.90;;;11.00;99.90;;;;;;5092089;28;20031;-74
2021/12/15 07:42:55;;;;;;;45.03;22.85;;;11.00;99.90;;;;;;5097894;28;20055;-75
2021/12/15 07:45:15;;;;;;;41.47;22.52;;;10.60;99.90;;;;;;5111508;28;20119;-74
2021/12/15 07:47:40;;;;;;;45.17;21.80;;;10.90;99.90;;;;;;5092890;28;20118;-73
2021/12/15 07:50:07;;;;;;;40.42;21.40;;;10.70;99.90;;;;;;5100998;28;20040;-72
2021/12/15 07:52:33;;;;;;;41.08;20.20;;;10.90;99.90;;;;;;5075737;28;20048;-73
2021/12/15 07:54:58;;;;;;;39.13;20.20;;;10.60;99.90;;;;;;5075865;28;20043;-75
2021/12/15 07:57:28;;;;;;;36.88;21.38;;;10.70;99.90;;;;;;5102520;28;20031;-74
2021/12/15 07:59:56;;;;;;;43.83;21.73;;;10.90;99.90;;;;;;5112707;28;20593;-74
2021/12/15 08:02:23;;;;;;;39.25;19.75;;;10.50;99.90;;;;;;5113545;28;20398;-72
2021/12/15 08:04:48;;;;;;;41.47;20.55;;;10.70;99.90;;;;;;5114308;28;20047;-73
2021/12/15 08:07:15;;;;;;;37.50;20.38;;;10.90;99.90;;;;;;5112754;28;20082;-72
2021/12/15 08:09:42;;;;;;;36.90;19.73;;;10.70;99.90;;;;;;5094507;28;20436;-73
2021/12/15 08:12:08;;;;;;;41.63;19.05;;;10.80;99.90;;;;;;5112283;28;20437;-73
2021/12/15 08:14:34;;;;;;;32.70;18.45;;;10.70;99.90;;;;;;5112359;28;20074;-73
2021/12/15 08:17:00;;;;;;;32.17;16.70;;;10.90;99.90;;;;;;5113116;28;20075;-74
2021/12/15 08:19:26;;;;;;;40.13;17.63;;;10.70;99.90;;;;;;5069603;28;20059;-72
2021/12/15 08:21:52;;;;;;;30.02;17.40;;;10.90;99.90;;;;;;5075272;28;20040;-73
2021/12/15 08:24:21;;;;;;;33.60;17.83;;;10.80;99.90;;;;;;5106977;28;20047;-72
2021/12/15 08:26:47;;;;;;;33.80;16.75;;;10.90;99.90;;;;;;5112272;28;20052;-74
2021/12/15 08:29:13;;;;;;;30.58;16.63;;;10.70;99.90;;;;;;5111963;28;20039;-74
2021/12/15 08:31:39;;;;;;;28.17;15.50;;;10.60;99.90;;;;;;5112271;28;20422;-72
2021/12/15 08:34:07;;;;;;;30.80;15.40;;;10.60;99.90;;;;;;5112787;28;20043;-73
2021/12/15 08:36:40;;;;;;;26.55;14.32;;;10.90;99.90;;;;;;5112254;28;20055;-73
2021/12/15 08:39:07;;;;;;;27.10;14.05;;;10.70;99.90;;;;;;5111223;28;20035;-72
2021/12/15 08:41:33;;;;;;;25.15;13.93;;;10.80;99.90;;;;;;5106288;28;20092;-72
2021/12/15 08:44:00;;;;;;;29.90;14.23;;;10.60;99.90;;;;;;5098190;28;20047;-73
2021/12/15 08:46:39;;;;;;;26.10;13.00;;;10.70;99.90;;;;;;5101579;28;20043;-74
2021/12/15 08:49:07;;;;;;;21.60;13.00;;;10.60;99.90;;;;;;5100966;28;20084;-73
2021/12/15 08:51:34;;;;;;;21.75;12.32;;;10.90;99.90;;;;;;5101424;28;20040;-73
2021/12/15 08:54:06;;;;;;;24.98;13.95;;;10.60;99.90;;;;;;5101642;28;20031;-72
2021/12/15 08:56:32;;;;;;;25.52;14.38;;;10.60;99.90;;;;;;5104212;28;20108;-73
2021/12/15 08:58:59;;;;;;;24.15;13.05;;;10.90;99.90;;;;;;5105033;28;20053;-72
2021/12/15 09:01:25;;;;;;;29.73;13.90;;;10.90;99.90;;;;;;5101533;28;20043;-73
2021/12/15 09:03:51;;;;;;;27.02;15.70;;;11.00;99.90;;;;;;5104953;28;20041;-74
2021/12/15 09:06:17;;;;;;;25.75;14.45;;;10.80;99.90;;;;;;5104598;28;20074;-72
2021/12/15 09:08:44;;;;;;;32.17;14.57;;;10.70;99.90;;;;;;5105142;28;20074;-73
2021/12/15 09:11:14;;;;;;;26.35;14.38;;;10.70;99.90;;;;;;5105040;28;20039;-74
2021/12/15 09:13:43;;;;;;;29.85;14.00;;;10.60;99.90;;;;;;5105012;28;20415;-74
2021/12/15 09:16:11;;;;;;;28.42;13.65;;;10.60;99.90;;;;;;5104876;28;20039;-73
2021/12/15 09:18:39;;;;;;;30.17;14.23;;;10.60;99.90;;;;;;5106134;28;20128;-74
2021/12/15 09:21:06;;;;;;;25.95;14.43;;;10.90;99.90;;;;;;5105277;28;20040;-75
2021/12/15 09:23:33;;;;;;;26.25;14.00;;;10.90;99.90;;;;;;5104244;28;20092;-74
2021/12/15 09:25:59;;;;;;;25.77;14.73;;;10.80;99.90;;;;;;5105299;28;20487;-74
2021/12/15 09:28:25;;;;;;;31.40;14.63;;;10.80;99.90;;;;;;5105485;28;20043;-74
2021/12/15 09:30:54;;;;;;;25.02;14.38;;;10.80;99.90;;;;;;5105422;28;20494;-73
2021/12/15 09:33:24;;;;;;;21.92;12.70;;;10.90;99.90;;;;;;5102268;28;20041;-75
2021/12/15 09:35:50;;;;;;;23.13;13.18;;;10.90;99.90;;;;;;5105212;28;20050;-73
2021/12/15 09:38:23;;;;;;;26.45;14.40;;;11.10;99.90;;;;;;5105874;28;20058;-74
2021/12/15 09:40:53;;;;;;;24.90;13.38;;;11.50;99.90;;;;;;5105501;28;20048;-75
2021/12/15 09:43:20;;;;;;;24.30;14.15;;;11.70;99.90;;;;;;5106281;28;20116;-73
2021/12/15 09:45:55;;;;;;;27.15;13.95;;;11.70;99.90;;;;;;5104644;28;20058;-71
2021/12/15 10:04:45;;;;;;;;;;;11.20;99.90;;;;;;5101273;28;20100;-74
2021/12/15 10:10:40;;;;;;;16.77;9.52;;;11.10;99.90;;;;;;5103717;28;19954;-72
2021/12/15 10:18:30;;;;;;;13.30;7.82;;;11.80;99.90;;;;;;5104233;28;20130;-72
2021/12/15 10:20:56;;;;;;;17.70;9.70;;;11.50;99.90;;;;;;5102637;28;20051;-72
2021/12/15 10:23:29;;;;;;;17.25;9.68;;;11.30;99.90;;;;;;5103006;28;20039;-72
2021/12/15 10:25:57;;;;;;;18.30;10.30;;;11.30;99.90;;;;;;5087366;28;20051;-74
2021/12/15 10:28:29;;;;;;;18.27;10.18;;;11.10;99.90;;;;;;5105000;28;20048;-74
2021/12/15 10:30:59;;;;;;;17.48;10.35;;;11.00;99.90;;;;;;5086269;28;20043;-74
2021/12/15 10:33:34;;;;;;;21.45;11.85;;;11.00;99.90;;;;;;5100882;28;20079;-72
2021/12/15 10:36:32;;;;;;;19.63;11.88;;;10.90;99.90;;;;;;5123937;27;20044;-73
2021/12/15 10:39:06;;;;;;;17.65;10.50;;;10.90;99.90;;;;;;5104373;28;20437;-73
2021/12/15 10:41:36;;;;;;;19.35;10.88;;;10.80;99.90;;;;;;5077108;28;20028;-75
2021/12/15 10:44:14;;;;;;;19.52;11.10;;;10.90;99.90;;;;;;5106114;28;20078;-74
2021/12/15 10:46:49;;;;;;;19.65;10.82;;;10.90;99.90;;;;;;5122036;27;20085;-75
2021/12/15 10:49:18;;;;;;;18.67;10.27;;;10.80;99.90;;;;;;5109496;28;20726;-73
2021/12/15 10:51:47;;;;;;;21.23;9.63;;;10.90;99.90;;;;;;5108073;28;20043;-73
2021/12/15 10:54:21;;;;;;;16.05;9.88;;;10.80;99.90;;;;;;5107203;28;20449;-73
2021/12/15 10:56:52;;;;;;;16.83;9.52;;;10.80;99.90;;;;;;5105331;28;20043;-73
2021/12/15 10:59:19;;;;;;;17.75;10.10;;;10.90;99.90;;;;;;5105149;28;20515;-72
2021/12/15 11:01:50;;;;;;;18.38;9.88;;;10.80;99.90;;;;;;5107287;28;20452;-72
2021/12/15 11:04:34;;;;;;;14.85;9.48;;;10.80;99.90;;;;;;5102956;28;20050;-73
2021/12/15 11:07:27;;;;;;;17.55;9.80;;;10.90;99.90;;;;;;5103577;28;20039;-72
2021/12/15 11:09:59;;;;;;;18.83;10.15;;;10.80;99.90;;;;;;5104525;28;20074;-72
2021/12/15 11:12:28;;;;;;;21.00;10.30;;;10.90;99.90;;;;;;5103970;28;20059;-73
2021/12/15 11:15:17;;;;;;;16.75;9.23;;;10.90;99.90;;;;;;5104163;28;20096;-74
2021/12/15 11:17:47;;;;;;;17.45;9.52;;;10.90;99.90;;;;;;5108454;28;20138;-73
2021/12/15 11:20:24;;;;;;;17.13;10.52;;;10.90;99.90;;;;;;5091586;28;20044;-72
2021/12/15 11:23:01;;;;;;;16.10;9.93;;;10.80;99.90;;;;;;5091434;28;20428;-72
2021/12/15 11:25:34;;;;;;;14.07;9.18;;;11.00;99.90;;;;;;5107690;28;20063;-73
2021/12/15 11:28:00;;;;;;;20.58;9.25;;;10.90;99.90;;;;;;5106637;28;20043;-73
2021/12/15 11:30:52;;;;;;;14.63;9.07;;;11.00;99.90;;;;;;5108301;28;20753;-74
2021/12/15 11:33:26;;;;;;;17.50;9.45;;;10.90;99.90;;;;;;5096511;28;20051;-73
2021/12/15 11:36:00;;;;;;;16.23;8.98;;;11.00;99.90;;;;;;5106175;28;20576;-72
2021/12/15 11:38:31;;;;;;;;;;;11.00;99.90;;;;;;5106442;28;20118;-72
2021/12/15 11:40:56;;;;;;;19.27;9.00;;;11.00;99.90;;;;;;5106754;28;19919;-74
2021/12/15 11:43:50;;;;;;;14.18;9.13;;;11.00;99.90;;;;;;5107750;28;20065;-74
2021/12/15 11:46:20;;;;;;;14.65;8.98;;;11.10;99.90;;;;;;5104186;28;20046;-72
2021/12/15 11:48:52;;;;;;;16.73;9.98;;;11.10;99.90;;;;;;5108195;28;20391;-74
2021/12/15 11:51:30;;;;;;;21.13;10.25;;;11.10;99.90;;;;;;5090677;28;20123;-74
2021/12/15 11:53:56;;;;;;;14.25;8.57;;;11.00;99.90;;;;;;5090261;28;20052;-73
2021/12/15 11:56:30;;;;;;;14.85;8.60;;;11.10;99.90;;;;;;5106557;28;20055;-74
2021/12/15 11:59:00;;;;;;;14.60;8.17;;;11.20;99.90;;;;;;5106659;28;20031;-73
2021/12/15 12:01:50;;;;;;;19.98;9.73;;;11.20;99.90;;;;;;5108297;28;20078;-73
2021/12/15 12:04:31;;;;;;;15.77;8.27;;;11.20;99.90;;;;;;5083117;28;20071;-72
2021/12/15 12:07:11;;;;;;;16.00;8.18;;;11.10;99.90;;;;;;5088205;28;20069;-73
2021/12/15 12:09:44;;;;;;;16.63;9.07;;;11.20;99.90;;;;;;5089779;28;20081;-73
2021/12/15 12:12:10;;;;;;;11.02;7.07;;;11.10;99.90;;;;;;5105445;28;20054;-73
2021/12/15 12:14:42;;;;;;;11.32;7.00;;;11.10;99.90;;;;;;5106988;28;20383;-73
2021/12/15 12:17:13;;;;;;;11.18;6.25;;;11.10;99.90;;;;;;5089517;28;20645;-73
2021/12/15 12:19:52;;;;;;;13.35;6.13;;;11.00;99.90;;;;;;5089163;28;20039;-74
2021/12/15 12:22:21;;;;;;;10.65;5.57;;;11.10;99.90;;;;;;5105535;28;20077;-74
2021/12/15 12:24:50;;;;;;;12.73;5.95;;;11.00;99.90;;;;;;5097292;28;20412;-72
2021/12/15 12:27:17;;;;;;;11.07;5.07;;;11.10;99.90;;;;;;5102219;28;20078;-73
2021/12/15 12:29:43;;;;;;;8.65;4.50;;;11.10;99.90;;;;;;5111634;28;20047;-75
2021/12/15 12:32:09;;;;;;;8.48;4.55;;;11.00;99.90;;;;;;5109375;28;20630;-74
2021/12/15 12:34:35;;;;;;;8.27;4.40;;;11.10;99.90;;;;;;5109329;28;20050;-74
2021/12/15 12:37:01;;;;;;;10.60;3.80;;;11.00;99.90;;;;;;5108471;28;20511;-72
2021/12/15 12:39:36;;;;;;;9.20;3.58;;;11.00;99.90;;;;;;5108782;28;20126;-72
2021/12/15 12:42:03;;;;;;;8.02;3.60;;;10.90;99.90;;;;;;5108324;28;20431;-74
2021/12/15 12:44:39;;;;;;;9.20;3.55;;;10.90;99.90;;;;;;5108231;28;20051;-74
2021/12/15 12:47:30;;;;;;;6.43;3.50;;;10.90;99.90;;;;;;5103033;28;20051;-72
2021/12/15 12:50:16;;;;;;;6.63;3.15;;;10.90;99.90;;;;;;5107874;28;20043;-73
2021/12/15 13:01:20;;;;;;;8.35;4.10;;;10.80;99.90;;;;;;5103915;28;20533;-73
2021/12/15 13:03:55;;;;;;;7.43;3.60;;;10.90;99.90;;;;;;5107549;28;20051;-71
2021/12/15 13:06:27;;;;;;;9.25;3.63;;;10.80;99.90;;;;;;5089647;28;20367;-74
2021/12/15 13:09:19;;;;;;;10.25;4.03;;;10.70;99.90;;;;;;5106698;28;20047;-73
2021/12/15 13:11:49;;;;;;;9.23;3.90;;;10.60;99.90;;;;;;5101216;28;20092;-74
2021/12/15 13:14:31;;;;;;;8.20;3.58;;;10.50;99.90;;;;;;5100787;28;20042;-73
2021/12/15 13:17:08;;;;;;;6.68;3.10;;;10.40;99.90;;;;;;5105852;28;20078;-73
2021/12/15 13:19:40;;;;;;;6.05;2.83;;;10.50;99.90;;;;;;5089619;28;20054;-74
2021/12/15 13:31:03;;;;;;;6.07;2.80;;;10.50;99.90;;;;;;5105691;28;20691;-73
2021/12/15 13:33:33;;;;;;;7.07;3.35;;;10.50;99.90;;;;;;5105552;28;20039;-73
2021/12/15 13:36:07;;;;;;;13.07;4.00;;;10.50;99.90;;;;;;5087544;28;20040;-73
2021/12/15 13:38:41;;;;;;;6.97;3.97;;;10.50;99.90;;;;;;5106764;28;20044;-72
2021/12/15 13:41:37;;;;;;;6.03;2.80;;;10.50;99.90;;;;;;5089236;28;20401;-73
2021/12/15 13:44:30;;;;;;;6.22;2.60;;;10.50;99.90;;;;;;5104934;28;20095;-72
2021/12/15 13:47:17;;;;;;;4.90;2.20;;;10.60;99.90;;;;;;5104648;28;20491;-71
2021/12/15 13:49:47;;;;;;;4.47;2.20;;;10.60;99.90;;;;;;5102568;28;20042;-72
2021/12/15 13:52:31;;;;;;;3.90;1.80;;;10.70;99.90;;;;;;5101994;28;20400;-72
2021/12/15 13:55:20;;;;;;;8.88;2.40;;;10.40;99.90;;;;;;5097647;28;20082;-71
2021/12/15 13:57:46;;;;;;;5.28;2.35;;;10.30;99.90;;;;;;5101766;28;20052;-72
2021/12/15 14:00:26;;;;;;;4.70;2.13;;;10.30;99.90;;;;;;5088207;28;20048;-71
2021/12/15 14:02:57;;;;;;;4.20;1.80;;;10.20;99.90;;;;;;5089199;28;20043;-74
2021/12/15 14:05:26;;;;;;;5.63;1.80;;;10.20;99.90;;;;;;5106037;28;20546;-72
2021/12/15 14:07:58;;;;;;;5.15;1.98;;;10.20;99.90;;;;;;5105022;28;20437;-71
2021/12/15 14:10:24;;;;;;;2.97;1.70;;;10.00;99.90;;;;;;5105682;28;20079;-71